createdAt,value
2019-01-19T22:07:36.901Z,41.28
2019-01-19T22:10:08.512Z,34.30
2019-01-19T22:12:37.292Z,31.53
2019-01-19T22:15:09.048Z,32.50
2019-01-19T22:17:39.545Z,32.37
2019-01-19T22:20:10.879Z,29.20
2019-01-19T22:22:39.592Z,29.63
2019-01-19T22:25:08.701Z,28.73
2019-01-19T22:27:39.089Z,27.93
2019-01-19T22:30:10.726Z,27.17
2019-01-19T22:32:39.447Z,27.03
2019-01-19T22:35:09.562Z,26.57
2019-01-19T22:37:38.201Z,25.93
2019-01-19T22:40:09.929Z,27.97
2019-01-19T22:42:38.506Z,27.80
2019-01-19T22:45:09.761Z,29.93
2019-01-19T22:47:38.281Z,32.03
2019-01-19T22:50:09.815Z,31.77
2019-01-19T22:52:38.377Z,32.43
2019-01-19T22:55:07.152Z,32.73
2019-01-19T22:57:35.678Z,32.30
2019-01-19T23:00:25.651Z,31.57
2019-01-19T23:02:54.216Z,31.77
2019-01-19T23:05:22.640Z,34.20
2019-01-19T23:07:51.208Z,34.13
2019-01-19T23:10:19.678Z,33.63
2019-01-19T23:12:50.730Z,34.47
2019-01-19T23:15:19.511Z,35.33
2019-01-19T23:17:47.943Z,34.20
2019-01-19T23:20:16.450Z,33.77
2019-01-19T23:22:44.935Z,33.07
2019-01-19T23:25:13.455Z,31.20
2019-01-19T23:27:42.095Z,30.93
2019-01-19T23:30:13.955Z,30.17
2019-01-19T23:32:42.429Z,32.73
2019-01-19T23:35:11.027Z,30.57
2019-01-19T23:37:39.626Z,32.07
2019-01-19T23:40:11.680Z,33.40
2019-01-19T23:42:46.877Z,33.67
2019-01-19T23:45:11.517Z,33.47
2019-01-19T23:47:40.076Z,32.40
2019-01-19T23:50:10.542Z,30.53
2019-01-19T23:52:39.509Z,28.57
2019-01-19T23:55:08.457Z,29.17
2019-01-19T23:57:38.602Z,30.47
